Terminal Aerodrome Forecast
Issued by NWS

Home | Current Version | Previous Version | Text Only | Print | Product List | Glossary Off
Versions: 1 2 3 4 5 6 7 8 9 10 11 12 13 14 15 16 17 18 19 20 21 22 23 24 25 26 27 28 29 30 31 32

000
FTUS43 KLOT 010900 AAA
TAFMDW
TAF AMD
KMDW 010914Z 0109/0206 19008KT P6SM SCT060 SCT250
     FM011100 22007KT P6SM VCSH SCT015 BKN050
     FM011300 21012G18KT P6SM VCTS BKN050CB
      TEMPO 0113/0117 VRB10G20KT 3SM SHRA SCT025 OVC035
     FM011700 23015G22KT P6SM SCT030 BKN040
     FM012300 24012KT P6SM SCT030 BKN040 PROB30 0123/0205 3SM TSRA
      SCT020 OVC040CB=

USA.gov is the U.S. government's official web portal to all federal, state and local government web resources and services.